createdAt,value
2023-04-26T00:01:38.176Z,100.00
2023-04-26T00:13:36.011Z,100.00
2023-04-26T00:24:57.540Z,100.00
2023-04-26T00:34:15.045Z,100.00
2023-04-26T00:40:30.628Z,100.00
2023-04-26T00:43:10.710Z,100.00
2023-04-26T00:45:54.075Z,100.00
2023-04-26T00:48:25.653Z,100.00
2023-04-26T00:51:02.663Z,100.00
2023-04-26T00:56:28.456Z,100.00
2023-04-26T00:58:57.663Z,100.00
2023-04-26T01:01:29.942Z,100.00
2023-04-26T01:04:02.169Z,100.00
2023-04-26T01:06:38.577Z,100.00
2023-04-26T01:09:15.608Z,100.00
2023-04-26T01:11:47.237Z,100.00
2023-04-26T01:14:17.927Z,100.00
2023-04-26T01:16:53.995Z,100.00
2023-04-26T01:19:23.949Z,100.00
2023-04-26T01:21:53.159Z,100.00
2023-04-26T01:24:33.099Z,100.00
2023-04-26T01:27:03.891Z,100.00
2023-04-26T01:29:36.675Z,100.00
2023-04-26T01:32:07.220Z,100.00
2023-04-26T01:34:42.622Z,100.00
2023-04-26T01:37:13.697Z,100.00
2023-04-26T01:39:52.682Z,100.00
2023-04-26T01:42:25.307Z,100.00
2023-04-26T01:45:05.549Z,100.00
2023-04-26T01:47:46.173Z,100.00
2023-04-26T02:00:24.683Z,100.00
2023-04-26T02:03:08.327Z,100.00
2023-04-26T02:08:39.481Z,100.00
2023-04-26T02:24:04.771Z,100.00
2023-04-26T02:26:38.811Z,100.00
2023-04-26T02:29:07.565Z,100.00
2023-04-26T02:31:36.184Z,100.00
2023-04-26T02:34:04.809Z,100.00
2023-04-26T02:36:33.476Z,100.00
2023-04-26T02:39:02.214Z,100.00
2023-04-26T02:41:35.646Z,100.00
2023-04-26T02:44:04.419Z,100.00
2023-04-26T02:46:33.268Z,100.00
2023-04-26T02:49:10.542Z,100.00
2023-04-26T02:51:49.770Z,100.00
2023-04-26T02:54:17.602Z,100.00
2023-04-26T02:56:46.637Z,100.00
2023-04-26T02:59:15.410Z,100.00
2023-04-26T03:01:44.432Z,100.00
2023-04-26T03:04:13.601Z,100.00
2023-04-26T03:06:42.400Z,100.00
2023-04-26T03:09:11.202Z,100.00
2023-04-26T03:11:39.825Z,100.00
2023-04-26T03:14:08.517Z,100.00
2023-04-26T03:16:45.399Z,100.00
2023-04-26T03:19:14.038Z,100.00
2023-04-26T03:21:42.763Z,100.00
2023-04-26T03:24:11.834Z,100.00
2023-04-26T03:26:40.507Z,100.00
2023-04-26T03:29:09.278Z,100.00
2023-04-26T03:31:40.866Z,100.00
2023-04-26T03:34:09.614Z,100.00
2023-04-26T03:36:38.528Z,100.00
2023-04-26T03:39:08.540Z,100.00
2023-04-26T03:41:39.726Z,100.00
2023-04-26T03:44:08.520Z,100.00
2023-04-26T03:46:37.275Z,100.00
2023-04-26T03:49:06.393Z,100.00
2023-04-26T03:51:35.135Z,100.00
2023-04-26T03:54:03.885Z,100.00
2023-04-26T03:56:36.713Z,100.00
2023-04-26T03:59:05.483Z,100.00
2023-04-26T04:01:34.151Z,100.00
2023-04-26T04:04:05.158Z,100.00
2023-04-26T04:06:34.100Z,100.00
2023-04-26T04:09:02.659Z,100.00
2023-04-26T04:11:31.317Z,100.00
2023-04-26T04:14:04.429Z,100.00
2023-04-26T04:16:33.263Z,100.00
2023-04-26T04:19:10.952Z,100.00
2023-04-26T04:21:43.534Z,100.00
2023-04-26T04:24:15.338Z,100.00
2023-04-26T04:27:06.871Z,100.00
2023-04-26T04:29:39.062Z,100.00
2023-04-26T04:32:12.984Z,100.00
2023-04-26T04:34:45.005Z,100.00
2023-04-26T04:37:18.301Z,100.00
2023-04-26T04:40:21.221Z,100.00
2023-04-26T04:42:52.757Z,100.00
2023-04-26T04:45:24.499Z,100.00
2023-04-26T04:47:59.082Z,100.00
2023-04-26T04:50:32.280Z,100.00
2023-04-26T04:53:05.636Z,100.00
2023-04-26T04:55:40.063Z,100.00
2023-04-26T04:58:15.505Z,100.00
2023-04-26T05:00:49.656Z,100.00
2023-04-26T05:03:18.836Z,100.00
2023-04-26T05:06:48.729Z,100.00
2023-04-26T05:08:33.367Z,100.00
2023-04-26T05:11:02.958Z,100.00
2023-04-26T05:13:31.753Z,100.00
2023-04-26T05:16:00.618Z,100.00
2023-04-26T05:18:29.456Z,100.00
2023-04-26T05:20:59.267Z,100.00
2023-04-26T05:23:28.019Z,100.00
2023-04-26T05:25:56.744Z,100.00
2023-04-26T05:28:27.164Z,100.00
2023-04-26T05:30:55.857Z,100.00
2023-04-26T05:33:24.622Z,100.00
2023-04-26T05:38:40.034Z,100.00
2023-04-26T05:41:08.835Z,100.00
2023-04-26T05:43:42.009Z,100.00
2023-04-26T05:46:10.761Z,100.00
2023-04-26T05:48:39.525Z,100.00
2023-04-26T05:51:08.159Z,100.00
2023-04-26T05:53:37.339Z,100.00
2023-04-26T05:56:07.270Z,100.00
2023-04-26T05:58:36.161Z,100.00
2023-04-26T06:01:07.448Z,100.00
2023-04-26T06:03:36.650Z,100.00
2023-04-26T06:06:05.738Z,100.00
2023-04-26T06:08:34.725Z,100.00
2023-04-26T06:11:03.283Z,100.00
2023-04-26T06:13:32.568Z,100.00
2023-04-26T06:16:04.125Z,100.00
2023-04-26T06:18:32.840Z,100.00
2023-04-26T06:21:01.511Z,100.00
2023-04-26T06:23:30.328Z,100.00
2023-04-26T06:25:59.030Z,100.00
2023-04-26T06:28:27.609Z,100.00
2023-04-26T06:30:58.930Z,100.00
2023-04-26T06:33:27.576Z,100.00
2023-04-26T06:36:07.342Z,100.00
2023-04-26T06:38:36.221Z,100.00
2023-04-26T06:41:04.816Z,100.00
2023-04-26T06:46:16.514Z,100.00
2023-04-26T06:48:45.378Z,100.00
2023-04-26T06:51:14.000Z,100.00
2023-04-26T06:53:43.210Z,100.00
2023-04-26T06:56:11.938Z,100.00
2023-04-26T06:58:40.576Z,100.00
2023-04-26T07:01:10.760Z,100.00
2023-04-26T07:03:41.193Z,100.00
2023-04-26T07:06:10.780Z,100.00
2023-04-26T07:08:56.861Z,100.00
2023-04-26T07:11:26.352Z,100.00
2023-04-26T07:17:12.979Z,100.00
2023-04-26T07:26:04.488Z,100.00
2023-04-26T07:28:35.739Z,100.00
2023-04-26T07:35:12.262Z,100.00
2023-04-26T07:37:43.211Z,100.00
2023-04-26T07:40:13.600Z,100.00
2023-04-26T07:46:11.005Z,100.00
2023-04-26T07:48:45.996Z,100.00
2023-04-26T07:51:15.616Z,100.00
2023-04-26T07:53:44.425Z,100.00
2023-04-26T07:56:13.136Z,100.00
2023-04-26T07:58:41.873Z,100.00
2023-04-26T08:01:11.906Z,100.00
2023-04-26T08:03:40.926Z,100.00
2023-04-26T08:06:10.192Z,100.00
2023-04-26T08:08:40.923Z,100.00
2023-04-26T08:11:10.261Z,100.00
2023-04-26T08:13:39.822Z,100.00
2023-04-26T08:19:38.273Z,100.00
2023-04-26T08:22:07.559Z,100.00
2023-04-26T08:24:36.444Z,100.00
2023-04-26T08:27:06.072Z,100.00
2023-04-26T08:29:35.031Z,100.00
2023-04-26T08:32:05.781Z,100.00
2023-04-26T08:35:02.897Z,100.00
2023-04-26T08:37:37.968Z,100.00
2023-04-26T08:40:16.428Z,100.00
2023-04-26T08:42:45.363Z,100.00
2023-04-26T08:45:19.269Z,100.00
2023-04-26T08:52:14.575Z,100.00
2023-04-26T08:54:46.313Z,100.00
2023-04-26T09:00:20.506Z,100.00
2023-04-26T09:02:54.575Z,100.00
2023-04-26T09:05:31.412Z,100.00
2023-04-26T09:08:05.552Z,100.00
2023-04-26T09:10:35.635Z,100.00
2023-04-26T09:13:04.368Z,100.00
2023-04-26T09:16:04.134Z,100.00
2023-04-26T09:18:57.710Z,100.00
2023-04-26T09:21:30.130Z,100.00
2023-04-26T09:24:03.216Z,100.00
2023-04-26T09:26:32.204Z,100.00
2023-04-26T09:29:14.805Z,100.00
2023-04-26T09:31:49.936Z,100.00
2023-04-26T09:34:29.185Z,100.00
2023-04-26T09:36:56.721Z,77.46
2023-04-26T09:39:43.490Z,77.91
2023-04-26T09:42:12.261Z,77.54
2023-04-26T09:44:46.024Z,72.42
2023-04-26T09:47:14.834Z,73.14
2023-04-26T09:50:12.749Z,71.84
2023-04-26T09:52:48.466Z,63.08
2023-04-26T09:55:33.604Z,56.71
2023-04-26T09:57:59.629Z,53.82
2023-04-26T10:00:51.856Z,54.29
2023-04-26T10:03:22.265Z,52.40
2023-04-26T10:05:52.738Z,54.27
2023-04-26T10:08:46.426Z,52.96
2023-04-26T10:11:20.235Z,51.04
2023-04-26T10:13:52.397Z,50.05
2023-04-26T10:16:22.891Z,49.61
2023-04-26T10:18:58.612Z,47.42
2023-04-26T10:24:30.365Z,48.48
2023-04-26T10:28:03.257Z,47.47
2023-04-26T10:31:13.118Z,46.71
2023-04-26T10:34:41.044Z,47.04
2023-04-26T10:40:28.630Z,48.66
2023-04-26T10:43:21.922Z,47.96
2023-04-26T10:48:43.891Z,47.10
2023-04-26T10:51:16.263Z,45.29
2023-04-26T10:53:57.141Z,46.91
2023-04-26T10:56:44.077Z,46.25
2023-04-26T11:01:46.685Z,44.69
2023-04-26T11:04:22.959Z,45.56
2023-04-26T11:10:24.880Z,45.38
2023-04-26T11:13:06.993Z,45.42
2023-04-26T11:15:36.919Z,45.66
2023-04-26T11:18:17.824Z,44.20
2023-04-26T11:20:47.160Z,44.17
2023-04-26T11:27:01.306Z,44.89
2023-04-26T11:29:34.562Z,44.54
2023-04-26T11:32:14.223Z,44.50
2023-04-26T11:34:48.793Z,43.60
2023-04-26T11:44:03.525Z,42.27
2023-04-26T11:46:32.000Z,42.14
2023-04-26T11:49:00.952Z,42.56
2023-04-26T11:51:32.520Z,42.86
2023-04-26T11:54:02.174Z,42.61
2023-04-26T12:03:10.512Z,39.97
2023-04-26T12:05:39.617Z,41.39
2023-04-26T12:08:11.757Z,41.86
2023-04-26T12:10:40.991Z,42.13
2023-04-26T12:13:09.647Z,41.68
2023-04-26T12:15:38.346Z,41.94
2023-04-26T12:18:13.907Z,42.13
2023-04-26T12:20:49.251Z,42.46
2023-04-26T12:23:21.260Z,41.96
2023-04-26T12:28:52.311Z,41.36
2023-04-26T12:31:21.345Z,42.13
2023-04-26T12:33:53.414Z,42.08
2023-04-26T12:36:22.405Z,43.07
2023-04-26T12:38:54.748Z,43.16
2023-04-26T12:41:23.407Z,43.28
2023-04-26T12:44:12.572Z,43.25
2023-04-26T12:46:44.439Z,43.79
2023-04-26T12:49:16.390Z,44.08
2023-04-26T12:51:48.573Z,44.40
2023-04-26T12:54:17.455Z,44.44
2023-04-26T12:56:46.765Z,44.41
2023-04-26T12:59:15.735Z,44.79
2023-04-26T13:01:48.229Z,44.34
2023-04-26T13:04:17.634Z,43.63
2023-04-26T13:06:55.940Z,44.53
2023-04-26T13:09:31.185Z,43.85
2023-04-26T13:12:00.458Z,44.71
2023-04-26T13:14:29.302Z,47.17
2023-04-26T13:16:58.154Z,47.57
2023-04-26T13:19:27.509Z,47.24
2023-04-26T13:22:15.547Z,45.73
2023-04-26T13:24:46.819Z,44.74
2023-04-26T13:27:15.564Z,44.18
2023-04-26T13:29:44.341Z,44.48
2023-04-26T13:32:15.495Z,44.94
2023-04-26T13:34:48.104Z,45.26
2023-04-26T13:37:17.768Z,45.00
2023-04-26T13:39:46.737Z,45.16
2023-04-26T13:42:17.623Z,46.16
2023-04-26T13:44:46.387Z,46.40
2023-04-26T13:47:14.987Z,47.50
2023-04-26T13:50:06.888Z,47.99
2023-04-26T13:52:36.444Z,47.96
2023-04-26T13:55:05.414Z,48.92
2023-04-26T13:57:36.492Z,49.70
2023-04-26T14:00:07.697Z,49.61
2023-04-26T14:05:50.405Z,50.24
2023-04-26T14:08:26.134Z,50.84
2023-04-26T14:10:55.317Z,51.55
2023-04-26T14:13:28.532Z,51.32
2023-04-26T14:16:07.246Z,52.14
2023-04-26T14:18:39.664Z,52.35
2023-04-26T14:21:14.664Z,52.75
2023-04-26T14:26:56.503Z,53.69
2023-04-26T14:29:29.374Z,54.41
2023-04-26T14:31:58.219Z,55.28
2023-04-26T14:34:29.736Z,56.47
2023-04-26T14:37:05.455Z,57.09
2023-04-26T14:39:34.275Z,57.31
2023-04-26T14:42:12.313Z,57.78
2023-04-26T14:44:41.480Z,56.88
2023-04-26T14:47:15.620Z,56.37
2023-04-26T14:50:04.586Z,56.68
2023-04-26T14:56:14.913Z,56.89
2023-04-26T14:58:46.620Z,58.10
2023-04-26T15:03:53.400Z,59.67
2023-04-26T15:06:27.429Z,61.54
2023-04-26T15:09:03.415Z,62.67
2023-04-26T15:11:38.412Z,62.98
2023-04-26T15:14:07.594Z,62.82
2023-04-26T15:16:40.717Z,63.48
2023-04-26T15:19:12.972Z,64.15
2023-04-26T15:21:43.690Z,65.71
2023-04-26T15:24:17.168Z,67.07
2023-04-26T15:26:50.775Z,66.91
2023-04-26T15:29:32.444Z,67.08
2023-04-26T15:32:27.265Z,68.04
2023-04-26T15:34:45.798Z,67.69
2023-04-26T15:37:40.402Z,67.25
2023-04-26T15:43:08.998Z,66.97
2023-04-26T15:45:45.721Z,67.28
2023-04-26T15:48:21.798Z,68.26
2023-04-26T15:51:03.311Z,68.49
2023-04-26T15:53:37.693Z,68.45
2023-04-26T15:56:26.031Z,69.10
2023-04-26T15:58:58.744Z,69.66
2023-04-26T16:01:31.810Z,69.91
2023-04-26T16:06:56.353Z,70.86
2023-04-26T16:09:33.952Z,71.70
2023-04-26T16:19:03.159Z,74.01
2023-04-26T16:21:33.691Z,74.75
2023-04-26T16:27:07.092Z,74.63
2023-04-26T16:32:57.749Z,77.04
2023-04-26T16:35:34.643Z,78.42
2023-04-26T16:38:08.701Z,79.68
2023-04-26T16:40:39.647Z,79.46
2023-04-26T16:43:12.265Z,79.57
2023-04-26T16:45:43.163Z,81.71
2023-04-26T16:48:12.230Z,81.79
2023-04-26T16:50:44.212Z,83.07
2023-04-26T16:56:09.825Z,83.22
2023-04-26T16:58:44.758Z,83.53
2023-04-26T17:01:13.668Z,83.86
2023-04-26T17:03:43.221Z,86.05
2023-04-26T17:06:18.209Z,85.96
2023-04-26T17:08:49.779Z,86.05
2023-04-26T17:11:21.052Z,86.34
2023-04-26T17:13:54.155Z,86.97
2023-04-26T17:16:23.054Z,89.06
2023-04-26T17:18:53.205Z,89.05
2023-04-26T17:21:21.878Z,89.03
2023-04-26T17:23:50.876Z,89.66
2023-04-26T17:26:19.661Z,90.36
2023-04-26T17:28:51.586Z,89.99
2023-04-26T17:31:22.179Z,90.12
2023-04-26T17:34:05.111Z,89.52
2023-04-26T17:36:52.950Z,91.16
2023-04-26T17:39:20.208Z,89.43
2023-04-26T17:41:51.571Z,89.72
2023-04-26T17:44:20.190Z,89.43
2023-04-26T17:47:04.935Z,89.79
2023-04-26T17:49:50.557Z,89.83
2023-04-26T17:52:23.787Z,89.58
2023-04-26T17:55:00.118Z,88.97
2023-04-26T17:57:36.299Z,89.29
2023-04-26T18:00:10.099Z,89.53
2023-04-26T18:02:42.382Z,88.90
2023-04-26T18:05:13.422Z,88.21
2023-04-26T18:07:42.359Z,87.89
2023-04-26T18:10:11.422Z,87.80
2023-04-26T18:12:41.798Z,87.67
2023-04-26T18:15:10.804Z,88.11
2023-04-26T18:17:39.703Z,88.02
2023-04-26T18:20:24.596Z,87.04
2023-04-26T18:23:00.756Z,85.40
2023-04-26T18:25:28.850Z,85.39
2023-04-26T18:28:01.666Z,86.01
2023-04-26T18:30:38.344Z,85.78
2023-04-26T18:33:07.044Z,86.37
2023-04-26T18:36:52.020Z,85.28
2023-04-26T18:41:32.431Z,85.21
2023-04-26T18:44:28.199Z,83.50
2023-04-26T18:47:14.006Z,84.11
2023-04-26T18:49:49.955Z,83.21
2023-04-26T18:52:18.935Z,83.85
2023-04-26T18:54:50.064Z,83.43
2023-04-26T18:57:26.045Z,82.83
2023-04-26T19:00:01.840Z,84.32
2023-04-26T19:02:55.804Z,83.84
2023-04-26T19:05:24.588Z,83.95
2023-04-26T19:07:54.800Z,83.11
2023-04-26T19:10:38.742Z,82.94
2023-04-26T19:13:25.645Z,85.04
2023-04-26T19:15:50.343Z,82.48
2023-04-26T19:18:43.904Z,82.36
2023-04-26T19:21:53.383Z,81.86
2023-04-26T19:23:54.416Z,81.36
2023-04-26T19:26:23.193Z,81.34
2023-04-26T19:30:03.649Z,79.26
2023-04-26T19:34:36.485Z,78.34
2023-04-26T19:37:05.320Z,77.57
2023-04-26T19:39:36.931Z,79.50
2023-04-26T19:42:08.667Z,76.96
2023-04-26T19:44:42.499Z,78.65
2023-04-26T19:50:11.847Z,76.62
2023-04-26T19:52:40.703Z,76.31
2023-04-26T19:55:10.639Z,77.18
2023-04-26T19:57:42.547Z,76.61
2023-04-26T20:00:12.482Z,76.33
2023-04-26T20:02:43.098Z,76.10
2023-04-26T20:05:12.749Z,76.12
2023-04-26T20:07:44.186Z,75.75
2023-04-26T20:10:12.982Z,76.43
2023-04-26T20:12:42.131Z,77.21
2023-04-26T20:15:13.169Z,77.46
2023-04-26T20:17:42.836Z,78.16
2023-04-26T20:20:13.010Z,77.33
2023-04-26T20:22:41.924Z,77.11
2023-04-26T20:25:36.256Z,78.26
2023-04-26T20:28:05.022Z,78.01
2023-04-26T20:30:33.943Z,78.18
2023-04-26T20:33:03.160Z,78.75
2023-04-26T20:35:31.917Z,78.96
2023-04-26T20:38:00.744Z,78.37
2023-04-26T20:40:29.411Z,77.99
2023-04-26T20:42:58.008Z,78.09
2023-04-26T20:45:26.928Z,77.13
2023-04-26T20:47:55.878Z,77.07
2023-04-26T20:50:26.371Z,77.03
2023-04-26T20:52:55.120Z,76.65
2023-04-26T20:55:23.853Z,76.14
2023-04-26T20:57:54.043Z,75.66
2023-04-26T21:00:24.055Z,75.19
2023-04-26T21:02:52.977Z,75.83
2023-04-26T21:05:22.636Z,74.23
2023-04-26T21:07:51.584Z,74.03
2023-04-26T21:10:20.319Z,73.61
2023-04-26T21:12:48.881Z,73.67
2023-04-26T21:15:17.672Z,73.32
2023-04-26T21:17:46.329Z,72.61
2023-04-26T21:20:15.164Z,72.54
2023-04-26T21:22:43.762Z,71.81
2023-04-26T21:25:14.141Z,71.59
2023-04-26T21:28:02.179Z,72.72
2023-04-26T21:30:31.180Z,73.81
2023-04-26T21:32:59.854Z,73.79
2023-04-26T21:35:30.095Z,71.82
2023-04-26T21:37:58.661Z,71.68
2023-04-26T21:40:28.836Z,71.35
2023-04-26T21:43:04.899Z,70.11
2023-04-26T21:45:27.814Z,69.64
2023-04-26T21:47:56.525Z,69.29
2023-04-26T21:50:25.605Z,69.79
2023-04-26T21:52:54.323Z,69.42
2023-04-26T21:55:22.871Z,69.41
2023-04-26T21:57:51.592Z,68.34
2023-04-26T22:00:20.533Z,68.31
2023-04-26T22:02:49.394Z,67.89
2023-04-26T22:05:18.148Z,67.66
2023-04-26T22:07:46.825Z,68.66
2023-04-26T22:10:16.496Z,68.17
2023-04-26T22:12:45.158Z,67.29
2023-04-26T22:15:13.995Z,67.13
2023-04-26T22:17:42.593Z,67.01
2023-04-26T22:20:12.285Z,66.12
2023-04-26T22:22:41.568Z,65.64
2023-04-26T22:25:10.643Z,66.86
2023-04-26T22:27:39.246Z,65.15
2023-04-26T22:30:23.781Z,64.98
2023-04-26T22:32:43.316Z,65.26
2023-04-26T22:35:12.173Z,65.09
2023-04-26T22:37:40.717Z,65.87
2023-04-26T22:40:11.954Z,64.30
2023-04-26T22:42:40.837Z,64.01
2023-04-26T22:45:10.837Z,64.24
2023-04-26T22:47:40.228Z,64.22
2023-04-26T22:50:09.536Z,64.60
2023-04-26T22:52:39.638Z,65.27
2023-04-26T22:55:10.220Z,63.68
2023-04-26T22:57:53.241Z,63.76
2023-04-26T23:00:16.373Z,63.42
2023-04-26T23:02:45.276Z,63.04
2023-04-26T23:05:14.118Z,62.86
2023-04-26T23:07:49.232Z,62.13
2023-04-26T23:10:17.919Z,62.38
2023-04-26T23:12:46.753Z,62.97
2023-04-26T23:15:15.491Z,62.40
2023-04-26T23:17:45.614Z,62.70
2023-04-26T23:20:14.397Z,62.66
2023-04-26T23:22:44.164Z,62.51
2023-04-26T23:25:12.812Z,62.21
2023-04-26T23:27:41.524Z,62.44
2023-04-26T23:30:10.914Z,61.41
2023-04-26T23:32:39.642Z,61.91
2023-04-26T23:35:08.599Z,61.59
2023-04-26T23:37:37.325Z,61.32
2023-04-26T23:40:09.891Z,61.43
2023-04-26T23:42:40.082Z,61.24
2023-04-26T23:45:16.123Z,61.11
2023-04-26T23:47:45.001Z,60.83
2023-04-26T23:50:13.642Z,61.37
2023-04-26T23:52:42.469Z,61.16
2023-04-26T23:55:13.364Z,61.53
2023-04-26T23:57:43.523Z,60.45
